Time;durP1;ratioP1;P1;durP2;ratioP2;P2;SDS_P1;SDS_P2;PMS_P1;PMS_P2;Temp;Humidity;BMP_temperature;BMP_pressure;BME280_temperature;BME280_humidity;BME280_pressure;Samples;Min_cycle;Max_cycle;Signal;HPM_P1;HPM_P2
2022/02/07 00:00:21;;;;;;;;;;;;;;;2.84;95.86;95498.63;4985055;28;19963;-73
2022/02/07 00:05:28;;;;;;;;;;;;;;;2.66;95.61;95514.66;4985226;28;19960;-73
2022/02/07 00:07:55;;;;;;;;;;;;;;;2.58;93.88;95515.63;4987670;28;19964;-73
2022/02/07 00:10:21;;;;;;;;;;;;;;;2.43;94.33;95489.03;4992079;28;19970;-73
2022/02/07 00:12:47;;;;;;;;;;;;;;;2.29;93.99;95508.03;4983914;28;20412;-73
2022/02/07 00:15:14;;;;;;;;;;;;;;;2.12;93.99;95547.16;4986976;28;19961;-73
2022/02/07 00:17:40;;;;;;;;;;;;;;;2.02;94.83;95565.56;4984291;28;19954;-73
2022/02/07 00:20:11;;;;;;;;;;;;;;;1.92;94.38;95570.22;4991688;28;19964;-73
2022/02/07 00:22:37;;;;;;;;;;;;;;;1.78;94.52;95564.13;4988902;28;19969;-73
2022/02/07 00:25:03;;;;;;;;;;;;;;;1.64;94.43;95534.00;4986314;28;20017;-73
2022/02/07 00:27:29;;;;;;;;;;;;;;;1.52;94.93;95564.69;4991999;28;19953;-73
2022/02/07 00:29:55;;;;;;;;;;;;;;;1.46;94.47;95577.53;4989654;28;20059;-72
2022/02/07 00:32:21;;;;;;;;;;;;;;;1.32;94.43;95564.44;4986814;28;20009;-72
2022/02/07 00:34:47;;;;;;;;;;;;;;;1.21;95.27;95576.03;4988170;28;19962;-72
2022/02/07 00:37:13;;;;;;;;;;;;;;;1.15;95.77;95612.13;4990337;28;19960;-72
2022/02/07 00:39:54;;;;;;;;;;;;;;;1.13;96.22;95658.78;4986553;28;19956;-73
2022/02/07 00:42:26;;;;;;;;;;;;;;;1.12;96.03;95646.84;4988602;28;19984;-73
2022/02/07 00:44:54;;;;;;;;;;;;;;;1.07;95.78;95630.28;4987257;28;20315;-73
2022/02/07 00:47:20;;;;;;;;;;;;;;;1.06;96.43;95628.69;4983454;28;20428;-73
2022/02/07 00:49:46;;;;;;;;;;;;;;;1.10;96.45;95650.59;4989413;28;19955;-73
2022/02/07 00:52:12;;;;;;;;;;;;;;;1.14;96.88;95698.34;4989455;28;19965;-73
2022/02/07 00:54:38;;;;;;;;;;;;;;;1.13;96.40;95692.34;4988339;28;20007;-73
2022/02/07 00:57:04;;;;;;;;;;;;;;;1.06;96.42;95685.50;4983904;28;20407;-73
2022/02/07 00:59:29;;;;;;;;;;;;;;;1.00;96.76;95695.53;4985716;28;19960;-73
2022/02/07 01:01:55;;;;;;;;;;;;;;;0.91;96.53;95699.19;4992194;28;20051;-72
2022/02/07 01:04:21;;;;;;;;;;;;;;;0.80;97.55;95682.34;4985468;28;20019;-72
2022/02/07 01:06:47;;;;;;;;;;;;;;;0.78;97.90;95683.50;4987507;28;19964;-72
2022/02/07 01:09:18;;;;;;;;;;;;;;;0.78;97.37;95678.34;4983851;28;19963;-72
2022/02/07 01:11:59;;;;;;;;;;;;;;;0.83;96.46;95703.63;4986853;28;19965;-72
2022/02/07 01:19:34;;;;;;;;;;;;;;;0.91;94.23;95688.06;4982889;28;20043;-73
2022/02/07 01:49:26;;;;;;;;;;;;;;;1.16;93.51;95766.09;4984304;28;19985;-72
2022/02/07 01:52:06;;;;;;;;;;;;;;;1.19;95.25;95797.53;4979178;28;20371;-73
2022/02/07 01:56:58;;;;;;;;;;;;;;;1.26;93.46;95831.22;4991287;28;19965;-72
2022/02/07 01:59:24;;;;;;;;;;;;;;;1.30;93.89;95852.31;4984224;28;20029;-72
2022/02/07 02:01:50;;;;;;;;;;;;;;;1.33;94.57;95852.78;4983033;28;19961;-73
2022/02/07 02:04:17;;;;;;;;;;;;;;;1.37;94.76;95868.75;4985842;28;20011;-73
2022/02/07 02:06:44;;;;;;;;;;;;;;;1.37;95.20;95859.22;4982354;28;19954;-73
2022/02/07 02:09:11;;;;;;;;;;;;;;;1.36;94.84;95867.13;4991914;28;20452;-73
2022/02/07 02:11:39;;;;;;;;;;;;;;;1.36;94.83;95875.66;4982332;28;19956;-73
2022/02/07 02:16:39;;;;;;;;;;;;;;;1.36;93.96;95888.59;4984449;28;19992;-72
2022/02/07 02:38:23;;;;;;;;;;;;;;;1.47;93.31;95938.25;4990229;28;19961;-73
2022/02/07 02:46:22;;;;;;;;;;;;;;;1.53;93.40;95955.63;4982235;28;19958;-73
2022/02/07 02:48:48;;;;;;;;;;;;;;;1.53;93.94;95977.09;4981660;28;19953;-74
2022/02/07 02:51:16;;;;;;;;;;;;;;;1.51;92.52;95983.44;4984452;28;19963;-73
2022/02/07 02:53:42;;;;;;;;;;;;;;;1.53;92.48;95989.22;4989266;28;19965;-73
2022/02/07 02:56:08;;;;;;;;;;;;;;;1.52;92.82;95997.97;4986311;28;20406;-72
2022/02/07 02:58:34;;;;;;;;;;;;;;;1.50;93.55;96016.22;4978834;28;20412;-73
2022/02/07 03:00:59;;;;;;;;;;;;;;;1.47;93.69;96021.75;4986385;28;19960;-73
2022/02/07 03:03:25;;;;;;;;;;;;;;;1.45;93.59;96028.88;4986097;28;20525;-72
2022/02/07 03:05:51;;;;;;;;;;;;;;;1.42;93.00;96047.28;4985385;28;20001;-73
2022/02/07 03:08:19;;;;;;;;;;;;;;;1.44;93.28;96054.88;4982580;28;19960;-72
2022/02/07 03:13:32;;;;;;;;;;;;;;;1.40;91.69;96047.44;4982057;28;20480;-73
2022/02/07 03:18:42;;;;;;;;;;;;;;;1.42;91.11;96060.19;4986988;28;19959;-73
2022/02/07 03:21:08;;;;;;;;;;;;;;;1.44;90.44;96070.38;4990212;28;20478;-75
2022/02/07 03:23:34;;;;;;;;;;;;;;;1.42;88.35;96061.00;4984306;28;19982;-73
2022/02/07 03:26:00;;;;;;;;;;;;;;;1.45;87.90;96054.72;4977564;28;20028;-73
2022/02/07 03:28:27;;;;;;;;;;;;;;;1.47;89.01;96065.69;4985829;28;20325;-73
2022/02/07 03:30:53;;;;;;;;;;;;;;;1.47;88.34;96073.44;4988138;28;19956;-73
2022/02/07 03:33:20;;;;;;;;;;;;;;;1.43;88.27;96077.31;4990322;28;19953;-73
2022/02/07 03:35:46;;;;;;;;;;;;;;;1.44;86.88;96083.28;4981925;28;19951;-73
2022/02/07 03:38:12;;;;;;;;;;;;;;;1.40;88.34;96085.41;4991986;28;20319;-73
2022/02/07 03:40:39;;;;;;;;;;;;;;;1.39;87.59;96101.88;4988607;28;19953;-73
2022/02/07 03:43:05;;;;;;;;;;;;;;;1.37;89.20;96096.09;4988133;28;20428;-73
2022/02/07 03:45:31;;;;;;;;;;;;;;;1.36;89.18;96099.63;4988003;28;19958;-73
2022/02/07 03:47:57;;;;;;;;;;;;;;;1.34;87.88;96089.44;4967802;28;19961;-74
2022/02/07 03:50:23;;;;;;;;;;;;;;;1.35;89.56;96093.66;4991189;28;19954;-73
2022/02/07 03:52:52;;;;;;;;;;;;;;;1.33;90.33;96115.47;4989046;28;19963;-73
2022/02/07 03:55:18;;;;;;;;;;;;;;;1.32;89.83;96144.84;4985176;28;19986;-73
2022/02/07 03:57:44;;;;;;;;;;;;;;;1.32;89.67;96166.31;4987125;28;19957;-73
2022/02/07 04:00:11;;;;;;;;;;;;;;;1.36;88.09;96170.19;4989710;28;19961;-73
2022/02/07 04:02:42;;;;;;;;;;;;;;;1.38;88.67;96181.16;4989631;28;20964;-73
2022/02/07 04:08:08;;;;;;;;;;;;;;;1.41;88.56;96219.59;4961899;28;19965;-73
2022/02/07 04:10:41;;;;;;;;;;;;;;;1.41;90.46;96250.59;4981937;28;19965;-73
2022/02/07 04:13:09;;;;;;;;;;;;;;;1.29;91.03;96254.50;4987336;28;20027;-73
2022/02/07 04:15:35;;;;;;;;;;;;;;;1.00;91.02;96232.56;4988806;28;20428;-73
2022/02/07 04:18:05;;;;;;;;;;;;;;;0.76;92.06;96248.88;4985422;28;19984;-73
2022/02/07 04:20:31;;;;;;;;;;;;;;;0.57;93.47;96269.84;4980732;28;19956;-73
2022/02/07 04:22:57;;;;;;;;;;;;;;;0.41;94.45;96286.09;4989351;28;19980;-73
2022/02/07 04:25:23;;;;;;;;;;;;;;;0.30;96.84;96286.41;4989151;28;20327;-73
2022/02/07 04:27:49;;;;;;;;;;;;;;;0.22;98.23;96274.28;4985073;28;19954;-73
2022/02/07 04:30:15;;;;;;;;;;;;;;;0.13;97.42;96258.00;4987845;28;19962;-72
2022/02/07 04:32:41;;;;;;;;;;;;;;;0.11;96.10;96267.66;4983597;28;20454;-72
2022/02/07 04:35:07;;;;;;;;;;;;;;;0.12;95.50;96289.88;4988805;28;19995;-72
2022/02/07 04:37:33;;;;;;;;;;;;;;;0.17;95.78;96321.19;4987685;28;19955;-72
2022/02/07 04:39:58;;;;;;;;;;;;;;;0.24;96.24;96339.41;4989877;28;20006;-72
2022/02/07 04:42:26;;;;;;;;;;;;;;;0.32;96.45;96352.34;4986079;28;20044;-72
2022/02/07 04:45:49;;;;;;;;;;;;;;;0.38;96.79;96343.97;4990422;28;19978;-71
2022/02/07 04:55:14;;;;;;;;;;;;;;;0.49;95.09;96399.63;4988301;28;20014;-72
2022/02/07 04:57:49;;;;;;;;;;;;;;;0.49;94.39;96407.38;4990550;28;19975;-72
2022/02/07 05:03:00;;;;;;;;;;;;;;;0.48;92.79;96408.31;4987423;28;19956;-72
2022/02/07 05:16:10;;;;;;;;;;;;;;;0.53;91.04;96451.75;4984791;28;19964;-72
2022/02/07 05:18:36;;;;;;;;;;;;;;;0.52;91.21;96461.22;4989335;28;19963;-72
2022/02/07 05:21:02;;;;;;;;;;;;;;;0.52;91.38;96475.91;4988193;28;19967;-72
2022/02/07 05:23:28;;;;;;;;;;;;;;;0.47;90.83;96478.16;4982776;28;20062;-72
2022/02/07 05:25:54;;;;;;;;;;;;;;;0.42;91.01;96481.22;4983239;28;19996;-72
2022/02/07 05:28:20;;;;;;;;;;;;;;;0.41;90.57;96482.16;4985974;28;19956;-72
2022/02/07 05:30:45;;;;;;;;;;;;;;;0.38;90.84;96492.78;4992792;28;20074;-73
2022/02/07 05:33:11;;;;;;;;;;;;;;;0.36;90.33;96511.00;4980618;28;20409;-72
2022/02/07 05:35:37;;;;;;;;;;;;;;;0.38;89.56;96516.00;4985879;28;19990;-72
2022/02/07 05:38:06;;;;;;;;;;;;;;;0.38;90.13;96519.38;4984351;28;20008;-73
2022/02/07 05:40:42;;;;;;;;;;;;;;;0.39;90.65;96543.41;4988055;28;19959;-73
2022/02/07 05:43:08;;;;;;;;;;;;;;;0.37;90.75;96551.28;4987579;28;19965;-73
2022/02/07 05:45:35;;;;;;;;;;;;;;;0.38;89.42;96572.75;4981681;28;19959;-73
2022/02/07 05:48:01;;;;;;;;;;;;;;;0.38;89.73;96570.19;4985943;28;19979;-73
2022/02/07 05:50:27;;;;;;;;;;;;;;;0.40;89.51;96573.41;4989000;28;19965;-73
2022/02/07 05:52:53;;;;;;;;;;;;;;;0.43;88.95;96592.94;4988949;28;20004;-73
2022/02/07 05:55:19;;;;;;;;;;;;;;;0.44;89.98;96597.13;4982964;28;20012;-75
2022/02/07 05:57:44;;;;;;;;;;;;;;;0.45;89.63;96596.19;4982694;28;19999;-73
2022/02/07 06:00:11;;;;;;;;;;;;;;;0.45;90.16;96607.31;4986644;28;19965;-73
2022/02/07 06:02:37;;;;;;;;;;;;;;;0.45;88.16;96607.31;4985796;28;20037;-73
2022/02/07 06:05:03;;;;;;;;;;;;;;;0.48;89.05;96611.34;4981780;28;20050;-74
2022/02/07 06:07:29;;;;;;;;;;;;;;;0.49;88.62;96616.38;4988768;28;19956;-73
2022/02/07 06:09:55;;;;;;;;;;;;;;;0.54;90.62;96628.81;4986016;28;20389;-74
2022/02/07 06:12:20;;;;;;;;;;;;;;;0.56;90.02;96625.13;4981420;28;19959;-74
2022/02/07 06:14:46;;;;;;;;;;;;;;;0.58;87.97;96645.63;4991879;28;20422;-74
2022/02/07 06:17:12;;;;;;;;;;;;;;;0.60;88.95;96647.09;4986871;28;20391;-73
2022/02/07 06:19:38;;;;;;;;;;;;;;;0.60;89.52;96665.16;4985885;28;19960;-73
2022/02/07 06:22:04;;;;;;;;;;;;;;;0.58;86.89;96661.09;4980217;28;19962;-73
2022/02/07 06:24:30;;;;;;;;;;;;;;;0.60;88.11;96664.34;4987344;28;19969;-74
2022/02/07 06:26:56;;;;;;;;;;;;;;;0.57;88.57;96674.97;4986521;28;19958;-73
2022/02/07 06:29:22;;;;;;;;;;;;;;;0.53;87.63;96671.88;4984768;28;19951;-73
2022/02/07 06:31:49;;;;;;;;;;;;;;;0.51;87.95;96681.53;4984356;28;19966;-74
2022/02/07 06:34:15;;;;;;;;;;;;;;;0.49;88.68;96680.06;4984994;28;19957;-74
2022/02/07 06:36:41;;;;;;;;;;;;;;;0.48;89.40;96688.75;4987646;28;19968;-74
2022/02/07 06:39:07;;;;;;;;;;;;;;;0.46;89.05;96691.47;4983186;28;19948;-74
2022/02/07 06:41:33;;;;;;;;;;;;;;;0.44;87.51;96695.16;4982682;28;19954;-74
2022/02/07 06:43:59;;;;;;;;;;;;;;;0.43;86.93;96698.72;4984136;28;20425;-74
2022/02/07 06:46:25;;;;;;;;;;;;;;;0.42;86.91;96691.94;4989062;28;19956;-74
2022/02/07 06:48:51;;;;;;;;;;;;;;;0.39;86.74;96691.25;4989456;28;20336;-74
2022/02/07 06:51:17;;;;;;;;;;;;;;;0.40;87.30;96697.25;4981088;28;19956;-74
2022/02/07 06:53:43;;;;;;;;;;;;;;;0.42;86.81;96707.41;4980462;28;20433;-74
2022/02/07 06:56:09;;;;;;;;;;;;;;;0.44;85.44;96708.88;4983929;28;20079;-74
2022/02/07 06:58:35;;;;;;;;;;;;;;;0.46;84.96;96712.13;4987586;28;19971;-74
2022/02/07 07:01:01;;;;;;;;;;;;;;;0.50;85.01;96722.97;4986771;28;19958;-73
2022/02/07 07:03:31;;;;;;;;;;;;;;;0.54;85.14;96732.84;4990403;28;19971;-73
2022/02/07 07:05:57;;;;;;;;;;;;;;;0.54;84.67;96743.16;4987220;28;19970;-73
2022/02/07 07:08:23;;;;;;;;;;;;;;;0.57;85.81;96748.03;4981543;28;20045;-73
2022/02/07 07:10:49;;;;;;;;;;;;;;;0.61;85.12;96748.56;4967834;28;20017;-74
2022/02/07 07:13:22;;;;;;;;;;;;;;;0.65;86.00;96761.97;4983651;28;20411;-73
2022/02/07 07:15:54;;;;;;;;;;;;;;;0.68;86.05;96764.25;4973789;28;19958;-73
2022/02/07 07:18:20;;;;;;;;;;;;;;;0.70;83.80;96765.72;4984160;28;19954;-73
2022/02/07 07:20:47;;;;;;;;;;;;;;;0.74;84.19;96781.75;4984080;28;19963;-73
2022/02/07 07:23:12;;;;;;;;;;;;;;;0.83;84.51;96790.38;4988382;28;19960;-73
2022/02/07 07:25:40;;;;;;;;;;;;;;;0.90;82.86;96794.78;4986572;28;19965;-73
2022/02/07 07:28:10;;;;;;;;;;;;;;;0.92;82.49;96786.88;4981531;28;19958;-74
2022/02/07 07:30:49;;;;;;;;;;;;;;;1.14;83.55;96804.50;4979971;28;19956;-73
2022/02/07 07:33:19;;;;;;;;;;;;;;;1.24;81.60;96804.44;4968532;28;19957;-75
2022/02/07 07:35:45;;;;;;;;;;;;;;;1.17;82.21;96817.09;4980075;28;19971;-73
2022/02/07 07:38:11;;;;;;;;;;;;;;;1.02;82.36;96819.41;4985219;28;20011;-74
2022/02/07 07:40:37;;;;;;;;;;;;;;;0.93;81.70;96819.50;4987460;28;19960;-73
2022/02/07 07:43:06;;;;;;;;;;;;;;;0.95;81.50;96809.84;4985814;28;19962;-73
2022/02/07 07:45:35;;;;;;;;;;;;;;;1.13;82.32;96830.47;4979599;28;19971;-73
2022/02/07 07:48:06;;;;;;;;;;;;;;;1.62;81.77;96825.69;4984000;28;19963;-74
2022/02/07 07:50:46;;;;;;;;;;;;;;;2.17;80.31;96820.13;4984279;28;19950;-73
2022/02/07 08:03:42;;;;;;;;;;;;;;;3.64;79.45;96834.25;4988632;28;19954;-73
2022/02/07 08:06:13;;;;;;;;;;;;;;;3.63;72.76;96789.38;4984841;28;20413;-73
2022/02/07 08:09:11;;;;;;;;;;;;;;;3.75;71.64;96776.03;4981879;28;19959;-74
2022/02/07 08:11:25;;;;;;;;;;;;;;;3.83;70.97;96778.59;4983476;28;19966;-73
2022/02/07 08:13:53;;;;;;;;;;;;;;;3.84;69.43;96765.47;4983075;28;20412;-73
2022/02/07 08:16:19;;;;;;;;;;;;;;;3.96;71.30;96781.47;4989906;28;20300;-73
2022/02/07 08:18:45;;;;;;;;;;;;;;;4.11;69.63;96768.59;4988611;28;20050;-73
2022/02/07 08:21:11;;;;;;;;;;;;;;;4.22;69.22;96770.84;4983337;28;19963;-74
2022/02/07 08:23:39;;;;;;;;;;;;;;;4.20;69.29;96783.19;4992451;28;19993;-73
2022/02/07 08:26:05;;;;;;;;;;;;;;;4.22;72.75;96822.75;4988938;28;19965;-73
2022/02/07 08:28:31;;;;;;;;;;;;;;;4.21;71.68;96821.13;4987195;28;20304;-73
2022/02/07 08:30:57;;;;;;;;;;;;;;;4.37;71.76;96828.06;4982875;28;20015;-73
2022/02/07 08:33:23;;;;;;;;;;;;;;;4.46;71.11;96826.22;4985642;28;20401;-74
2022/02/07 08:35:49;;;;;;;;;;;;;;;4.66;70.56;96829.19;4993859;28;19992;-74
2022/02/07 08:38:17;;;;;;;;;;;;;;;4.82;68.61;96816.09;4988791;28;19952;-73
2022/02/07 08:40:42;;;;;;;;;;;;;;;4.98;68.23;96811.81;4981847;28;19957;-73
2022/02/07 08:43:08;;;;;;;;;;;;;;;5.16;67.97;96827.09;4986146;28;20028;-74
2022/02/07 08:45:34;;;;;;;;;;;;;;;5.01;68.33;96835.63;4989677;28;19979;-73
2022/02/07 08:48:00;;;;;;;;;;;;;;;4.60;70.90;96872.25;4986931;28;19964;-73
2022/02/07 08:50:27;;;;;;;;;;;;;;;4.10;71.40;96883.78;4986657;28;19954;-74
2022/02/07 08:52:55;;;;;;;;;;;;;;;3.97;72.13;96905.06;4986973;28;19962;-73
2022/02/07 08:55:40;;;;;;;;;;;;;;;4.18;71.96;96912.31;4989782;28;19977;-74
2022/02/07 08:58:14;;;;;;;;;;;;;;;4.23;70.80;96914.41;4984573;28;19976;-73
2022/02/07 09:01:00;;;;;;;;;;;;;;;4.03;69.97;96906.19;4987111;28;19981;-73
2022/02/07 09:11:03;;;;;;;;;;;;;;;3.68;71.06;96936.72;4990743;28;19959;-73
2022/02/07 09:13:31;;;;;;;;;;;;;;;3.59;73.47;96968.78;4991170;28;19971;-73
2022/02/07 09:18:37;;;;;;;;;;;;;;;3.98;71.19;96958.56;4982581;28;19964;-74
2022/02/07 09:21:06;;;;;;;;;;;;;;;4.18;71.17;96959.06;4978152;28;19960;-73
2022/02/07 09:23:32;;;;;;;;;;;;;;;4.18;68.43;96946.06;4983515;28;19973;-73
2022/02/07 09:25:58;;;;;;;;;;;;;;;3.99;70.31;96980.97;4983610;28;19974;-73
2022/02/07 09:28:25;;;;;;;;;;;;;;;4.20;72.71;97009.03;4987981;28;20316;-73
2022/02/07 09:30:52;;;;;;;;;;;;;;;4.31;71.27;96994.09;4987746;28;19961;-73
2022/02/07 09:33:19;;;;;;;;;;;;;;;4.14;72.15;97008.88;4990083;28;19956;-73
2022/02/07 09:35:45;;;;;;;;;;;;;;;3.92;71.45;97020.69;4982022;28;19971;-73
2022/02/07 09:38:11;;;;;;;;;;;;;;;3.91;70.27;97011.31;4985387;28;19951;-73
2022/02/07 09:40:38;;;;;;;;;;;;;;;3.86;71.29;97027.34;4986378;28;19954;-73
2022/02/07 09:43:05;;;;;;;;;;;;;;;3.98;72.24;97039.03;4991609;28;19956;-73
2022/02/07 09:45:35;;;;;;;;;;;;;;;4.17;71.53;97027.50;4982131;28;19972;-73
2022/02/07 09:48:02;;;;;;;;;;;;;;;4.31;71.75;97036.44;4982710;28;19966;-73
2022/02/07 09:50:29;;;;;;;;;;;;;;;4.44;70.70;97025.53;4990148;28;19959;-73
2022/02/07 09:52:55;;;;;;;;;;;;;;;4.49;69.65;97023.25;4985411;28;19959;-72
2022/02/07 09:55:21;;;;;;;;;;;;;;;4.45;67.61;97012.41;4983632;28;20086;-72
2022/02/07 09:57:51;;;;;;;;;;;;;;;4.52;69.23;97022.13;4987054;28;19973;-72
2022/02/07 10:00:20;;;;;;;;;;;;;;;4.64;69.83;97033.78;4990802;28;19955;-72
2022/02/07 10:05:21;;;;;;;;;;;;;;;4.74;68.01;97038.78;4983925;28;19978;-72
2022/02/07 10:08:16;;;;;;;;;;;;;;;4.90;68.21;97048.34;4986118;28;19968;-72
2022/02/07 10:19:36;;;;;;;;;;;;;;;5.03;67.26;97053.81;4988243;28;19952;-72
2022/02/07 10:41:27;;;;;;;;;;;;;;;4.27;67.62;97111.25;4984297;28;19957;-73
2022/02/07 10:44:02;;;;;;;;;;;;;;;4.20;68.66;97122.41;4984470;28;19976;-73
2022/02/07 10:46:33;;;;;;;;;;;;;;;4.01;67.61;97118.34;4988044;28;19957;-74
2022/02/07 10:49:06;;;;;;;;;;;;;;;3.93;68.89;97129.53;4983927;28;19967;-74
2022/02/07 10:51:32;;;;;;;;;;;;;;;3.81;69.01;97139.38;4984499;28;19949;-74
2022/02/07 10:54:06;;;;;;;;;;;;;;;3.74;71.07;97166.94;4984443;28;20337;-74
2022/02/07 10:56:42;;;;;;;;;;;;;;;3.70;71.52;97175.19;4983684;28;19956;-74
2022/02/07 10:59:10;;;;;;;;;;;;;;;3.68;71.59;97187.50;4987359;28;19951;-74
2022/02/07 11:04:10;;;;;;;;;;;;;;;3.82;72.11;97195.50;4981383;28;19957;-74
2022/02/07 11:06:37;;;;;;;;;;;;;;;3.97;70.94;97185.34;4983068;28;19958;-75
2022/02/07 11:09:10;;;;;;;;;;;;;;;3.98;70.46;97199.94;4985893;28;19957;-74
2022/02/07 11:20:47;;;;;;;;;;;;;;;3.86;70.72;97217.56;4964459;28;19970;-75
2022/02/07 11:28:14;;;;;;;;;;;;;;;3.93;68.17;97206.56;4986884;28;19977;-75
2022/02/07 11:30:42;;;;;;;;;;;;;;;3.92;71.34;97246.47;4983812;28;19961;-74
2022/02/07 11:33:26;;;;;;;;;;;;;;;3.88;71.05;97251.13;4984278;28;19958;-74
2022/02/07 11:35:52;;;;;;;;;;;;;;;3.90;70.07;97244.00;4978182;28;19997;-74
2022/02/07 11:38:18;;;;;;;;;;;;;;;3.89;71.31;97270.13;4980998;28;20468;-74
2022/02/07 11:40:59;;;;;;;;;;;;;;;3.85;71.03;97264.44;4982362;28;19964;-75
2022/02/07 11:43:26;;;;;;;;;;;;;;;3.84;70.76;97262.78;4986174;28;19953;-74
2022/02/07 11:45:55;;;;;;;;;;;;;;;3.80;71.24;97277.03;4989052;28;19967;-74
2022/02/07 11:48:40;;;;;;;;;;;;;;;3.73;69.81;97258.69;4983327;28;19964;-74
2022/02/07 11:51:11;;;;;;;;;;;;;;;3.67;70.52;97282.66;4967634;28;19955;-74
2022/02/07 11:53:45;;;;;;;;;;;;;;;3.62;70.31;97288.31;4986144;28;19959;-74
2022/02/07 11:56:17;;;;;;;;;;;;;;;3.55;68.26;97265.72;4989947;28;19983;-74
2022/02/07 11:58:51;;;;;;;;;;;;;;;3.57;71.65;97311.31;4990004;28;19958;-74
2022/02/07 12:01:24;;;;;;;;;;;;;;;3.60;70.86;97305.00;4990699;28;19978;-74
2022/02/07 12:03:52;;;;;;;;;;;;;;;3.58;71.26;97320.69;4988022;28;19958;-74
2022/02/07 12:06:22;;;;;;;;;;;;;;;3.57;69.93;97306.13;4986958;28;20370;-76
2022/02/07 12:08:48;;;;;;;;;;;;;;;3.53;70.93;97325.53;4974063;28;19967;-74
2022/02/07 12:11:16;;;;;;;;;;;;;;;3.51;70.42;97331.81;4988463;28;20403;-76
2022/02/07 12:13:43;;;;;;;;;;;;;;;3.50;71.05;97337.97;4987836;28;19964;-74
2022/02/07 12:16:14;;;;;;;;;;;;;;;3.47;70.85;97333.91;4986425;28;19963;-74
2022/02/07 12:18:40;;;;;;;;;;;;;;;3.50;71.48;97345.75;4985561;28;19958;-75
2022/02/07 12:21:22;;;;;;;;;;;;;;;3.50;69.39;97325.00;4987157;28;19953;-74
2022/02/07 12:23:49;;;;;;;;;;;;;;;3.43;67.37;97307.47;4987497;28;20441;-74
2022/02/07 12:26:17;;;;;;;;;;;;;;;3.40;67.61;97317.31;4988703;28;20339;-74
2022/02/07 12:28:49;;;;;;;;;;;;;;;3.38;70.27;97345.19;4989702;28;19951;-74
2022/02/07 12:34:03;;;;;;;;;;;;;;;3.29;70.59;97362.44;4984238;28;20397;-73
2022/02/07 12:36:34;;;;;;;;;;;;;;;3.23;70.31;97360.44;4966606;28;19955;-74
2022/02/07 12:39:02;;;;;;;;;;;;;;;3.22;71.31;97374.38;4982877;28;19954;-74
2022/02/07 12:41:29;;;;;;;;;;;;;;;3.23;71.14;97374.25;4987174;28;19961;-73
2022/02/07 12:43:57;;;;;;;;;;;;;;;3.25;71.86;97374.91;4988581;28;19963;-73
2022/02/07 12:46:25;;;;;;;;;;;;;;;3.27;72.23;97385.13;4986940;28;19971;-73
2022/02/07 12:51:21;;;;;;;;;;;;;;;3.37;72.89;97392.81;4981305;28;19958;-73
2022/02/07 12:53:47;;;;;;;;;;;;;;;3.42;68.46;97349.94;4988627;28;20455;-73
2022/02/07 12:56:13;;;;;;;;;;;;;;;3.49;69.36;97359.72;4989941;28;19977;-73
2022/02/07 12:58:43;;;;;;;;;;;;;;;3.57;70.39;97370.94;4982905;28;20191;-73
2022/02/07 13:01:35;;;;;;;;;;;;;;;3.83;69.39;97368.38;4984943;28;19966;-73
2022/02/07 13:04:01;;;;;;;;;;;;;;;3.97;68.46;97359.22;4979328;28;19966;-73
2022/02/07 13:06:29;;;;;;;;;;;;;;;3.97;69.01;97371.34;4990662;28;19976;-73
2022/02/07 13:08:57;;;;;;;;;;;;;;;3.99;66.61;97338.28;4988016;28;19958;-74
2022/02/07 13:11:25;;;;;;;;;;;;;;;3.90;66.80;97347.00;4985354;28;19958;-74
2022/02/07 13:13:52;;;;;;;;;;;;;;;3.83;68.34;97373.56;4987993;28;19966;-73
2022/02/07 13:16:18;;;;;;;;;;;;;;;3.76;67.78;97356.97;4987343;28;19965;-73
2022/02/07 13:18:44;;;;;;;;;;;;;;;3.85;69.34;97389.78;4992121;28;19958;-73
2022/02/07 13:21:14;;;;;;;;;;;;;;;3.88;69.78;97406.03;4986617;28;19954;-74
2022/02/07 13:23:41;;;;;;;;;;;;;;;3.88;68.86;97386.06;4983774;28;19956;-73
2022/02/07 13:26:10;;;;;;;;;;;;;;;3.92;68.38;97369.22;4980365;28;19983;-74
2022/02/07 13:28:39;;;;;;;;;;;;;;;4.06;67.67;97354.88;4985319;28;19959;-73
2022/02/07 13:31:06;;;;;;;;;;;;;;;4.23;66.82;97338.41;4985623;28;20323;-73
2022/02/07 13:34:05;;;;;;;;;;;;;;;4.39;66.30;97335.06;4987669;28;19951;-73
2022/02/07 13:36:41;;;;;;;;;;;;;;;4.61;67.06;97348.47;4952819;28;19956;-73
2022/02/07 13:39:07;;;;;;;;;;;;;;;4.79;65.80;97332.78;4985011;28;20337;-73
2022/02/07 13:41:33;;;;;;;;;;;;;;;4.92;64.61;97316.72;4986463;28;19962;-73
2022/02/07 13:44:00;;;;;;;;;;;;;;;4.97;66.23;97335.22;4988498;28;19961;-74
2022/02/07 13:46:27;;;;;;;;;;;;;;;4.98;61.55;97277.06;4988915;28;20464;-74
2022/02/07 13:48:55;;;;;;;;;;;;;;;4.94;65.28;97327.75;4986703;28;19960;-74
2022/02/07 13:51:21;;;;;;;;;;;;;;;4.94;65.76;97333.75;4986355;28;19962;-73
2022/02/07 13:53:47;;;;;;;;;;;;;;;4.95;63.87;97298.97;4985839;28;19957;-73
2022/02/07 13:56:13;;;;;;;;;;;;;;;4.93;64.51;97324.31;4988332;28;20447;-73
2022/02/07 13:58:39;;;;;;;;;;;;;;;4.93;66.49;97354.72;4985690;28;20376;-75
2022/02/07 14:01:09;;;;;;;;;;;;;;;4.96;63.68;97329.22;4981270;28;19954;-73
2022/02/07 14:03:42;;;;;;;;;;;;;;;5.00;64.30;97343.53;4988696;28;19965;-74
2022/02/07 14:06:12;;;;;;;;;;;;;;;5.04;64.02;97347.44;4985081;28;19975;-74
2022/02/07 14:08:40;;;;;;;;;;;;;;;5.05;63.98;97343.03;4982975;28;19956;-74
2022/02/07 14:11:07;;;;;;;;;;;;;;;5.05;63.38;97346.44;4983154;28;19952;-74
2022/02/07 14:13:34;;;;;;;;;;;;;;;5.01;62.45;97337.34;4989603;28;19964;-73
2022/02/07 14:16:00;;;;;;;;;;;;;;;4.99;64.37;97362.69;4984737;28;19976;-74
2022/02/07 14:18:28;;;;;;;;;;;;;;;5.00;64.88;97373.91;4986509;28;19968;-74
2022/02/07 14:20:54;;;;;;;;;;;;;;;4.88;63.62;97350.78;4982515;28;19968;-74
2022/02/07 14:23:20;;;;;;;;;;;;;;;4.83;64.84;97383.44;4984454;28;19962;-74
2022/02/07 14:25:48;;;;;;;;;;;;;;;4.76;65.01;97388.44;4984572;28;20450;-73
2022/02/07 14:28:15;;;;;;;;;;;;;;;4.69;64.21;97382.25;4988528;28;19963;-73
2022/02/07 14:30:41;;;;;;;;;;;;;;;4.71;65.67;97395.91;4984951;28;19959;-73
2022/02/07 14:33:07;;;;;;;;;;;;;;;4.68;64.54;97378.84;4980431;28;20475;-74
2022/02/07 14:35:35;;;;;;;;;;;;;;;4.59;64.44;97381.56;4987486;28;19968;-73
2022/02/07 14:38:03;;;;;;;;;;;;;;;4.46;64.05;97382.00;4986108;28;19958;-73
2022/02/07 14:40:29;;;;;;;;;;;;;;;4.35;64.58;97396.09;4985405;28;19959;-73
2022/02/07 14:42:58;;;;;;;;;;;;;;;4.25;65.33;97405.78;4983033;28;19957;-73
2022/02/07 14:45:32;;;;;;;;;;;;;;;4.20;65.93;97424.41;4983798;28;19984;-76
2022/02/07 14:48:01;;;;;;;;;;;;;;;4.18;66.71;97431.53;4986148;28;19971;-73
2022/02/07 14:50:28;;;;;;;;;;;;;;;4.15;66.53;97439.63;4985396;28;19972;-76
2022/02/07 14:52:54;;;;;;;;;;;;;;;4.12;66.79;97433.94;4986049;28;19964;-73
2022/02/07 14:55:21;;;;;;;;;;;;;;;4.05;67.03;97449.28;4986171;28;19988;-75
2022/02/07 14:57:47;;;;;;;;;;;;;;;4.01;67.39;97447.94;4985758;28;19971;-75
2022/02/07 15:00:16;;;;;;;;;;;;;;;3.97;67.86;97450.06;4983178;28;19963;-76
2022/02/07 15:02:42;;;;;;;;;;;;;;;3.92;67.55;97462.66;4986083;28;20340;-76
2022/02/07 15:05:08;;;;;;;;;;;;;;;3.84;67.95;97458.22;4980829;28;19973;-75
2022/02/07 15:07:34;;;;;;;;;;;;;;;3.80;67.67;97464.69;4978804;28;19968;-75
2022/02/07 15:10:00;;;;;;;;;;;;;;;3.76;68.82;97468.53;4985116;28;19971;-75
2022/02/07 15:12:26;;;;;;;;;;;;;;;3.73;68.64;97476.59;4983732;28;20332;-75
2022/02/07 15:14:52;;;;;;;;;;;;;;;3.67;67.94;97466.81;4987647;28;19957;-75
2022/02/07 15:17:19;;;;;;;;;;;;;;;3.62;68.55;97476.84;4979489;28;20040;-75
2022/02/07 15:19:45;;;;;;;;;;;;;;;3.59;68.68;97484.91;4984845;28;20334;-75
2022/02/07 15:22:11;;;;;;;;;;;;;;;3.57;69.45;97502.41;4979832;28;19961;-76
2022/02/07 15:24:37;;;;;;;;;;;;;;;3.54;69.68;97498.31;4988760;28;20355;-75
2022/02/07 15:27:04;;;;;;;;;;;;;;;3.49;69.39;97499.75;4982194;28;19981;-75
2022/02/07 15:29:30;;;;;;;;;;;;;;;3.44;69.50;97508.78;4979296;28;19956;-75
2022/02/07 15:32:10;;;;;;;;;;;;;;;3.36;69.36;97506.09;4983271;28;20000;-75
2022/02/07 15:34:36;;;;;;;;;;;;;;;3.31;69.80;97513.47;4986859;28;19955;-75
2022/02/07 15:37:03;;;;;;;;;;;;;;;3.27;70.31;97517.31;4983920;28;19960;-75
2022/02/07 15:39:29;;;;;;;;;;;;;;;3.24;70.29;97528.81;4979862;28;20417;-75
2022/02/07 15:41:54;;;;;;;;;;;;;;;3.21;69.84;97517.91;4985059;28;19960;-75
2022/02/07 15:44:20;;;;;;;;;;;;;;;3.22;70.79;97535.09;4987289;28;20001;-76
2022/02/07 15:46:47;;;;;;;;;;;;;;;3.21;70.31;97520.50;4983618;28;19966;-75
2022/02/07 15:49:13;;;;;;;;;;;;;;;3.23;70.88;97537.56;4983313;28;19953;-75